sensor_id;sensor_type;location;lat;lon;timestamp;P1;durP1;ratioP1;P2;durP2;ratioP2
6135;SDS011;24008;42.664;23.372;2024-02-26T00:02:15;20.67;;;13.90;;
6135;SDS011;24008;42.664;23.372;2024-02-26T00:04:42;20.20;;;13.57;;
6135;SDS011;24008;42.664;23.372;2024-02-26T00:07:08;22.53;;;13.57;;
6135;SDS011;24008;42.664;23.372;2024-02-26T00:09:35;19.03;;;13.93;;
6135;SDS011;24008;42.664;23.372;2024-02-26T00:12:02;20.00;;;13.20;;
6135;SDS011;24008;42.664;23.372;2024-02-26T00:14:31;21.67;;;14.80;;
6135;SDS011;24008;42.664;23.372;2024-02-26T00:16:58;27.00;;;14.10;;
6135;SDS011;24008;42.664;23.372;2024-02-26T00:19:24;18.87;;;13.73;;
6135;SDS011;24008;42.664;23.372;2024-02-26T00:21:51;19.30;;;13.30;;
6135;SDS011;24008;42.664;23.372;2024-02-26T00:24:18;25.00;;;14.23;;
6135;SDS011;24008;42.664;23.372;2024-02-26T00:26:45;20.17;;;13.43;;
6135;SDS011;24008;42.664;23.372;2024-02-26T00:29:17;22.70;;;13.93;;
6135;SDS011;24008;42.664;23.372;2024-02-26T00:31:45;24.00;;;14.23;;
6135;SDS011;24008;42.664;23.372;2024-02-26T00:34:12;21.67;;;14.87;;
6135;SDS011;24008;42.664;23.372;2024-02-26T00:36:39;20.30;;;14.03;;
6135;SDS011;24008;42.664;23.372;2024-02-26T00:39:05;22.07;;;15.07;;
6135;SDS011;24008;42.664;23.372;2024-02-26T00:41:32;23.83;;;14.60;;
6135;SDS011;24008;42.664;23.372;2024-02-26T00:43:59;21.80;;;13.83;;
6135;SDS011;24008;42.664;23.372;2024-02-26T00:46:25;23.83;;;15.27;;
6135;SDS011;24008;42.664;23.372;2024-02-26T00:48:53;20.50;;;14.50;;
6135;SDS011;24008;42.664;23.372;2024-02-26T00:51:20;21.13;;;13.20;;
6135;SDS011;24008;42.664;23.372;2024-02-26T00:53:47;22.57;;;14.83;;
6135;SDS011;24008;42.664;23.372;2024-02-26T00:56:13;22.80;;;14.90;;
6135;SDS011;24008;42.664;23.372;2024-02-26T00:58:40;22.97;;;14.80;;
6135;SDS011;24008;42.664;23.372;2024-02-26T01:01:07;21.17;;;14.33;;
6135;SDS011;24008;42.664;23.372;2024-02-26T01:03:34;21.60;;;14.60;;
6135;SDS011;24008;42.664;23.372;2024-02-26T01:06:02;22.50;;;14.40;;
6135;SDS011;24008;42.664;23.372;2024-02-26T01:08:29;25.80;;;16.73;;
6135;SDS011;24008;42.664;23.372;2024-02-26T01:10:56;24.53;;;15.77;;
6135;SDS011;24008;42.664;23.372;2024-02-26T01:13:23;23.97;;;15.43;;
6135;SDS011;24008;42.664;23.372;2024-02-26T01:15:49;24.80;;;16.30;;
6135;SDS011;24008;42.664;23.372;2024-02-26T01:18:16;24.47;;;16.10;;
6135;SDS011;24008;42.664;23.372;2024-02-26T01:20:43;23.43;;;15.47;;
6135;SDS011;24008;42.664;23.372;2024-02-26T01:23:11;23.97;;;16.03;;
6135;SDS011;24008;42.664;23.372;2024-02-26T01:25:38;25.10;;;15.50;;
6135;SDS011;24008;42.664;23.372;2024-02-26T01:28:05;23.53;;;16.00;;
6135;SDS011;24008;42.664;23.372;2024-02-26T01:30:32;23.43;;;15.60;;
6135;SDS011;24008;42.664;23.372;2024-02-26T01:32:58;23.83;;;15.10;;
6135;SDS011;24008;42.664;23.372;2024-02-26T01:35:25;26.67;;;16.60;;
6135;SDS011;24008;42.664;23.372;2024-02-26T01:37:52;22.93;;;15.90;;
6135;SDS011;24008;42.664;23.372;2024-02-26T01:40:20;21.33;;;15.30;;
6135;SDS011;24008;42.664;23.372;2024-02-26T01:42:47;23.40;;;15.40;;
6135;SDS011;24008;42.664;23.372;2024-02-26T01:45:15;23.40;;;15.40;;
6135;SDS011;24008;42.664;23.372;2024-02-26T01:47:47;21.67;;;15.70;;
6135;SDS011;24008;42.664;23.372;2024-02-26T01:50:16;25.60;;;16.53;;
6135;SDS011;24008;42.664;23.372;2024-02-26T01:52:43;26.63;;;16.20;;
6135;SDS011;24008;42.664;23.372;2024-02-26T01:55:10;29.17;;;17.83;;
6135;SDS011;24008;42.664;23.372;2024-02-26T01:57:39;27.87;;;16.53;;
6135;SDS011;24008;42.664;23.372;2024-02-26T02:00:06;27.00;;;17.13;;
6135;SDS011;24008;42.664;23.372;2024-02-26T02:02:34;26.90;;;16.50;;
6135;SDS011;24008;42.664;23.372;2024-02-26T02:05:01;26.70;;;17.13;;
6135;SDS011;24008;42.664;23.372;2024-02-26T02:07:29;28.13;;;18.17;;
6135;SDS011;24008;42.664;23.372;2024-02-26T02:09:56;28.17;;;17.40;;
6135;SDS011;24008;42.664;23.372;2024-02-26T02:12:23;25.70;;;16.97;;
6135;SDS011;24008;42.664;23.372;2024-02-26T02:14:52;28.93;;;17.63;;
6135;SDS011;24008;42.664;23.372;2024-02-26T02:17:18;25.43;;;17.00;;
6135;SDS011;24008;42.664;23.372;2024-02-26T02:19:45;27.87;;;18.13;;
6135;SDS011;24008;42.664;23.372;2024-02-26T02:22:13;28.63;;;18.17;;
6135;SDS011;24008;42.664;23.372;2024-02-26T02:24:40;26.80;;;16.93;;
6135;SDS011;24008;42.664;23.372;2024-02-26T02:27:07;24.47;;;16.73;;
6135;SDS011;24008;42.664;23.372;2024-02-26T02:29:34;26.77;;;16.93;;
6135;SDS011;24008;42.664;23.372;2024-02-26T02:32:01;28.30;;;18.33;;
6135;SDS011;24008;42.664;23.372;2024-02-26T02:34:29;32.90;;;18.90;;
6135;SDS011;24008;42.664;23.372;2024-02-26T02:36:57;30.40;;;20.07;;
6135;SDS011;24008;42.664;23.372;2024-02-26T02:39:26;27.07;;;18.10;;
6135;SDS011;24008;42.664;23.372;2024-02-26T02:41:52;29.60;;;18.87;;
6135;SDS011;24008;42.664;23.372;2024-02-26T02:44:19;28.67;;;19.47;;
6135;SDS011;24008;42.664;23.372;2024-02-26T02:46:45;32.17;;;21.73;;
6135;SDS011;24008;42.664;23.372;2024-02-26T02:49:12;38.77;;;23.63;;
6135;SDS011;24008;42.664;23.372;2024-02-26T02:51:39;40.10;;;23.77;;
6135;SDS011;24008;42.664;23.372;2024-02-26T02:54:06;37.53;;;24.27;;
6135;SDS011;24008;42.664;23.372;2024-02-26T02:56:34;37.37;;;23.33;;
6135;SDS011;24008;42.664;23.372;2024-02-26T02:59:00;39.30;;;23.53;;
6135;SDS011;24008;42.664;23.372;2024-02-26T03:01:27;32.37;;;21.13;;
6135;SDS011;24008;42.664;23.372;2024-02-26T03:03:54;32.03;;;19.90;;
6135;SDS011;24008;42.664;23.372;2024-02-26T03:06:21;31.03;;;19.70;;
6135;SDS011;24008;42.664;23.372;2024-02-26T03:08:48;31.87;;;21.30;;
6135;SDS011;24008;42.664;23.372;2024-02-26T03:11:14;35.90;;;22.53;;
6135;SDS011;24008;42.664;23.372;2024-02-26T03:13:43;38.10;;;23.63;;
6135;SDS011;24008;42.664;23.372;2024-02-26T03:16:10;37.07;;;22.73;;
6135;SDS011;24008;42.664;23.372;2024-02-26T03:18:38;36.57;;;23.53;;
6135;SDS011;24008;42.664;23.372;2024-02-26T03:21:05;38.17;;;23.70;;
6135;SDS011;24008;42.664;23.372;2024-02-26T03:23:31;36.87;;;23.43;;
6135;SDS011;24008;42.664;23.372;2024-02-26T03:26:01;38.63;;;23.03;;
6135;SDS011;24008;42.664;23.372;2024-02-26T03:28:28;34.90;;;23.07;;
6135;SDS011;24008;42.664;23.372;2024-02-26T03:30:57;36.57;;;23.57;;
6135;SDS011;24008;42.664;23.372;2024-02-26T03:33:23;34.73;;;23.17;;
6135;SDS011;24008;42.664;23.372;2024-02-26T03:35:50;34.73;;;23.20;;
6135;SDS011;24008;42.664;23.372;2024-02-26T03:38:17;34.23;;;23.07;;
6135;SDS011;24008;42.664;23.372;2024-02-26T03:40:44;35.73;;;22.97;;
6135;SDS011;24008;42.664;23.372;2024-02-26T03:43:10;35.27;;;23.03;;
6135;SDS011;24008;42.664;23.372;2024-02-26T03:45:39;40.43;;;23.23;;
6135;SDS011;24008;42.664;23.372;2024-02-26T03:48:07;35.23;;;23.03;;
6135;SDS011;24008;42.664;23.372;2024-02-26T03:50:34;40.30;;;23.57;;
6135;SDS011;24008;42.664;23.372;2024-02-26T03:53:00;40.40;;;25.43;;
6135;SDS011;24008;42.664;23.372;2024-02-26T03:55:27;41.43;;;26.00;;
6135;SDS011;24008;42.664;23.372;2024-02-26T03:57:54;39.07;;;24.83;;
6135;SDS011;24008;42.664;23.372;2024-02-26T04:00:20;43.47;;;24.60;;
6135;SDS011;24008;42.664;23.372;2024-02-26T04:02:48;39.03;;;24.53;;
6135;SDS011;24008;42.664;23.372;2024-02-26T04:05:16;38.57;;;23.33;;
6135;SDS011;24008;42.664;23.372;2024-02-26T04:07:42;36.13;;;24.73;;
6135;SDS011;24008;42.664;23.372;2024-02-26T04:10:09;37.93;;;25.33;;
6135;SDS011;24008;42.664;23.372;2024-02-26T04:12:38;41.13;;;25.77;;
6135;SDS011;24008;42.664;23.372;2024-02-26T04:15:06;43.47;;;26.87;;
6135;SDS011;24008;42.664;23.372;2024-02-26T04:17:33;41.73;;;26.03;;
6135;SDS011;24008;42.664;23.372;2024-02-26T04:19:59;43.57;;;26.33;;
6135;SDS011;24008;42.664;23.372;2024-02-26T04:22:28;48.30;;;28.57;;
6135;SDS011;24008;42.664;23.372;2024-02-26T04:24:54;46.43;;;27.07;;
6135;SDS011;24008;42.664;23.372;2024-02-26T04:27:24;47.73;;;29.30;;
6135;SDS011;24008;42.664;23.372;2024-02-26T04:29:50;42.90;;;26.93;;
6135;SDS011;24008;42.664;23.372;2024-02-26T04:32:17;41.67;;;23.90;;
6135;SDS011;24008;42.664;23.372;2024-02-26T04:34:44;35.20;;;21.93;;
6135;SDS011;24008;42.664;23.372;2024-02-26T04:37:10;29.13;;;17.83;;
6135;SDS011;24008;42.664;23.372;2024-02-26T04:39:38;28.57;;;17.73;;
6135;SDS011;24008;42.664;23.372;2024-02-26T04:42:05;29.53;;;19.70;;
6135;SDS011;24008;42.664;23.372;2024-02-26T04:44:32;30.43;;;16.87;;
6135;SDS011;24008;42.664;23.372;2024-02-26T04:46:59;21.27;;;15.07;;
6135;SDS011;24008;42.664;23.372;2024-02-26T04:49:26;28.07;;;14.80;;
6135;SDS011;24008;42.664;23.372;2024-02-26T04:51:53;22.00;;;14.67;;
6135;SDS011;24008;42.664;23.372;2024-02-26T04:54:20;22.80;;;15.37;;
6135;SDS011;24008;42.664;23.372;2024-02-26T04:56:48;26.97;;;17.73;;
6135;SDS011;24008;42.664;23.372;2024-02-26T04:59:15;30.93;;;20.07;;
6135;SDS011;24008;42.664;23.372;2024-02-26T05:01:42;40.47;;;25.03;;
6135;SDS011;24008;42.664;23.372;2024-02-26T05:04:08;44.80;;;26.60;;
6135;SDS011;24008;42.664;23.372;2024-02-26T05:06:36;45.70;;;30.40;;
6135;SDS011;24008;42.664;23.372;2024-02-26T05:09:03;49.30;;;29.20;;
6135;SDS011;24008;42.664;23.372;2024-02-26T05:11:29;53.67;;;33.43;;
6135;SDS011;24008;42.664;23.372;2024-02-26T05:13:57;50.90;;;30.47;;
6135;SDS011;24008;42.664;23.372;2024-02-26T05:16:25;48.93;;;30.37;;
6135;SDS011;24008;42.664;23.372;2024-02-26T05:18:52;48.90;;;32.27;;
6135;SDS011;24008;42.664;23.372;2024-02-26T05:21:19;54.67;;;33.83;;
6135;SDS011;24008;42.664;23.372;2024-02-26T05:23:45;55.73;;;33.60;;
6135;SDS011;24008;42.664;23.372;2024-02-26T05:26:18;54.33;;;31.50;;
6135;SDS011;24008;42.664;23.372;2024-02-26T05:28:46;51.70;;;31.93;;
6135;SDS011;24008;42.664;23.372;2024-02-26T05:31:14;53.93;;;32.97;;
6135;SDS011;24008;42.664;23.372;2024-02-26T05:33:41;66.80;;;37.27;;
6135;SDS011;24008;42.664;23.372;2024-02-26T05:36:07;65.33;;;37.30;;
6135;SDS011;24008;42.664;23.372;2024-02-26T05:38:34;60.87;;;37.83;;
6135;SDS011;24008;42.664;23.372;2024-02-26T05:41:01;66.97;;;38.30;;
6135;SDS011;24008;42.664;23.372;2024-02-26T05:43:29;66.27;;;39.17;;
6135;SDS011;24008;42.664;23.372;2024-02-26T05:45:56;69.20;;;40.53;;
6135;SDS011;24008;42.664;23.372;2024-02-26T05:48:24;74.50;;;41.73;;
6135;SDS011;24008;42.664;23.372;2024-02-26T05:50:51;66.23;;;41.23;;
6135;SDS011;24008;42.664;23.372;2024-02-26T05:53:18;64.17;;;39.23;;
6135;SDS011;24008;42.664;23.372;2024-02-26T05:55:44;64.13;;;40.17;;
6135;SDS011;24008;42.664;23.372;2024-02-26T05:58:11;60.23;;;38.37;;
6135;SDS011;24008;42.664;23.372;2024-02-26T06:00:38;64.23;;;38.30;;
6135;SDS011;24008;42.664;23.372;2024-02-26T06:03:04;61.17;;;38.40;;
6135;SDS011;24008;42.664;23.372;2024-02-26T06:05:32;61.30;;;38.13;;
6135;SDS011;24008;42.664;23.372;2024-02-26T06:07:59;59.60;;;36.87;;
6135;SDS011;24008;42.664;23.372;2024-02-26T06:10:26;59.00;;;35.93;;
6135;SDS011;24008;42.664;23.372;2024-02-26T06:12:52;54.23;;;34.13;;
6135;SDS011;24008;42.664;23.372;2024-02-26T06:15:19;54.27;;;33.37;;
6135;SDS011;24008;42.664;23.372;2024-02-26T06:17:46;56.27;;;32.07;;
6135;SDS011;24008;42.664;23.372;2024-02-26T06:20:12;48.43;;;30.37;;
6135;SDS011;24008;42.664;23.372;2024-02-26T06:22:41;50.23;;;30.57;;
6135;SDS011;24008;42.664;23.372;2024-02-26T06:25:08;47.67;;;29.20;;
6135;SDS011;24008;42.664;23.372;2024-02-26T06:27:35;56.87;;;30.30;;
6135;SDS011;24008;42.664;23.372;2024-02-26T06:30:02;45.43;;;28.27;;
6135;SDS011;24008;42.664;23.372;2024-02-26T06:32:29;41.00;;;26.87;;
6135;SDS011;24008;42.664;23.372;2024-02-26T06:34:56;47.23;;;30.50;;
6135;SDS011;24008;42.664;23.372;2024-02-26T06:37:23;49.33;;;31.53;;
6135;SDS011;24008;42.664;23.372;2024-02-26T06:39:51;56.77;;;32.73;;
6135;SDS011;24008;42.664;23.372;2024-02-26T06:42:18;37.17;;;23.73;;
6135;SDS011;24008;42.664;23.372;2024-02-26T06:44:45;40.50;;;24.97;;
6135;SDS011;24008;42.664;23.372;2024-02-26T06:47:11;38.77;;;22.10;;
6135;SDS011;24008;42.664;23.372;2024-02-26T06:49:38;36.67;;;20.00;;
6135;SDS011;24008;42.664;23.372;2024-02-26T06:52:05;30.90;;;19.23;;
6135;SDS011;24008;42.664;23.372;2024-02-26T06:54:31;33.07;;;19.27;;
6135;SDS011;24008;42.664;23.372;2024-02-26T06:57:00;33.67;;;19.57;;
6135;SDS011;24008;42.664;23.372;2024-02-26T06:59:26;31.37;;;19.90;;
6135;SDS011;24008;42.664;23.372;2024-02-26T07:01:53;34.67;;;21.97;;
6135;SDS011;24008;42.664;23.372;2024-02-26T07:04:20;65.80;;;37.27;;
6135;SDS011;24008;42.664;23.372;2024-02-26T07:06:47;60.40;;;37.20;;
6135;SDS011;24008;42.664;23.372;2024-02-26T07:09:14;64.37;;;40.10;;
6135;SDS011;24008;42.664;23.372;2024-02-26T07:11:41;67.13;;;38.63;;
6135;SDS011;24008;42.664;23.372;2024-02-26T07:14:10;61.73;;;38.70;;
6135;SDS011;24008;42.664;23.372;2024-02-26T07:16:36;63.00;;;36.70;;
6135;SDS011;24008;42.664;23.372;2024-02-26T07:19:03;57.40;;;34.20;;
6135;SDS011;24008;42.664;23.372;2024-02-26T07:21:30;59.17;;;36.10;;
6135;SDS011;24008;42.664;23.372;2024-02-26T07:23:56;55.23;;;33.20;;
6135;SDS011;24008;42.664;23.372;2024-02-26T07:26:23;59.73;;;33.03;;
6135;SDS011;24008;42.664;23.372;2024-02-26T07:28:51;51.87;;;30.97;;
6135;SDS011;24008;42.664;23.372;2024-02-26T07:31:19;42.00;;;23.00;;
6135;SDS011;24008;42.664;23.372;2024-02-26T07:33:46;34.87;;;18.83;;
6135;SDS011;24008;42.664;23.372;2024-02-26T07:36:12;30.77;;;20.63;;
6135;SDS011;24008;42.664;23.372;2024-02-26T07:38:39;32.57;;;18.67;;
6135;SDS011;24008;42.664;23.372;2024-02-26T07:41:06;31.07;;;18.90;;
6135;SDS011;24008;42.664;23.372;2024-02-26T07:43:32;30.40;;;19.63;;
6135;SDS011;24008;42.664;23.372;2024-02-26T07:45:59;47.40;;;26.80;;
6135;SDS011;24008;42.664;23.372;2024-02-26T07:48:27;60.03;;;29.47;;
6135;SDS011;24008;42.664;23.372;2024-02-26T07:50:54;52.93;;;32.43;;
6135;SDS011;24008;42.664;23.372;2024-02-26T07:53:21;37.50;;;24.40;;
6135;SDS011;24008;42.664;23.372;2024-02-26T07:55:48;70.50;;;41.70;;
6135;SDS011;24008;42.664;23.372;2024-02-26T07:58:14;66.23;;;39.13;;
6135;SDS011;24008;42.664;23.372;2024-02-26T08:00:41;74.07;;;46.23;;
6135;SDS011;24008;42.664;23.372;2024-02-26T08:03:08;74.43;;;47.83;;
6135;SDS011;24008;42.664;23.372;2024-02-26T08:05:36;49.40;;;29.73;;
6135;SDS011;24008;42.664;23.372;2024-02-26T08:08:05;37.47;;;23.20;;
6135;SDS011;24008;42.664;23.372;2024-02-26T08:10:33;44.53;;;24.80;;
6135;SDS011;24008;42.664;23.372;2024-02-26T08:13:00;26.87;;;18.73;;
6135;SDS011;24008;42.664;23.372;2024-02-26T08:15:31;31.77;;;20.20;;
6135;SDS011;24008;42.664;23.372;2024-02-26T08:17:57;35.90;;;20.13;;
6135;SDS011;24008;42.664;23.372;2024-02-26T08:20:25;34.17;;;20.87;;
6135;SDS011;24008;42.664;23.372;2024-02-26T08:22:53;35.50;;;22.83;;
6135;SDS011;24008;42.664;23.372;2024-02-26T08:25:20;44.97;;;25.50;;
6135;SDS011;24008;42.664;23.372;2024-02-26T08:27:46;30.17;;;18.97;;
6135;SDS011;24008;42.664;23.372;2024-02-26T08:30:14;40.40;;;23.73;;
6135;SDS011;24008;42.664;23.372;2024-02-26T08:32:42;37.23;;;23.17;;
6135;SDS011;24008;42.664;23.372;2024-02-26T08:35:09;31.20;;;21.63;;
6135;SDS011;24008;42.664;23.372;2024-02-26T08:37:36;29.53;;;15.93;;
6135;SDS011;24008;42.664;23.372;2024-02-26T08:40:04;27.60;;;17.23;;
6135;SDS011;24008;42.664;23.372;2024-02-26T08:42:32;28.23;;;17.23;;
6135;SDS011;24008;42.664;23.372;2024-02-26T08:44:59;26.37;;;17.10;;
6135;SDS011;24008;42.664;23.372;2024-02-26T08:47:26;29.97;;;16.33;;
6135;SDS011;24008;42.664;23.372;2024-02-26T08:49:53;20.50;;;13.10;;
6135;SDS011;24008;42.664;23.372;2024-02-26T08:52:20;26.10;;;14.10;;
6135;SDS011;24008;42.664;23.372;2024-02-26T08:54:47;18.30;;;12.10;;
6135;SDS011;24008;42.664;23.372;2024-02-26T08:57:15;14.73;;;9.50;;
6135;SDS011;24008;42.664;23.372;2024-02-26T08:59:42;16.87;;;9.20;;
6135;SDS011;24008;42.664;23.372;2024-02-26T09:02:08;15.47;;;9.13;;
6135;SDS011;24008;42.664;23.372;2024-02-26T09:04:35;15.23;;;10.03;;
6135;SDS011;24008;42.664;23.372;2024-02-26T09:07:02;17.80;;;10.93;;
6135;SDS011;24008;42.664;23.372;2024-02-26T09:09:29;13.87;;;10.60;;
6135;SDS011;24008;42.664;23.372;2024-02-26T09:11:57;17.47;;;10.97;;
6135;SDS011;24008;42.664;23.372;2024-02-26T09:14:26;20.07;;;10.23;;
6135;SDS011;24008;42.664;23.372;2024-02-26T09:16:53;14.97;;;10.97;;
6135;SDS011;24008;42.664;23.372;2024-02-26T09:19:19;15.87;;;10.87;;
6135;SDS011;24008;42.664;23.372;2024-02-26T09:21:46;18.47;;;10.30;;
6135;SDS011;24008;42.664;23.372;2024-02-26T09:24:13;13.60;;;9.93;;
6135;SDS011;24008;42.664;23.372;2024-02-26T09:26:40;14.20;;;9.80;;
6135;SDS011;24008;42.664;23.372;2024-02-26T09:29:06;14.63;;;10.07;;
6135;SDS011;24008;42.664;23.372;2024-02-26T09:31:34;15.07;;;9.00;;
6135;SDS011;24008;42.664;23.372;2024-02-26T09:34:01;14.10;;;9.10;;
6135;SDS011;24008;42.664;23.372;2024-02-26T09:36:28;16.40;;;9.77;;
6135;SDS011;24008;42.664;23.372;2024-02-26T09:38:54;16.30;;;9.53;;
6135;SDS011;24008;42.664;23.372;2024-02-26T09:41:21;17.50;;;8.33;;
6135;SDS011;24008;42.664;23.372;2024-02-26T09:43:48;11.13;;;8.07;;
6135;SDS011;24008;42.664;23.372;2024-02-26T09:46:18;12.73;;;8.13;;
6135;SDS011;24008;42.664;23.372;2024-02-26T09:48:47;13.60;;;8.80;;
6135;SDS011;24008;42.664;23.372;2024-02-26T09:51:14;12.17;;;8.07;;
6135;SDS011;24008;42.664;23.372;2024-02-26T09:53:42;11.07;;;7.93;;
6135;SDS011;24008;42.664;23.372;2024-02-26T09:56:11;9.10;;;7.90;;
6135;SDS011;24008;42.664;23.372;2024-02-26T09:58:38;11.10;;;7.90;;
6135;SDS011;24008;42.664;23.372;2024-02-26T10:01:07;11.93;;;8.67;;
6135;SDS011;24008;42.664;23.372;2024-02-26T10:03:40;11.63;;;8.60;;
6135;SDS011;24008;42.664;23.372;2024-02-26T10:06:11;12.03;;;8.13;;
6135;SDS011;24008;42.664;23.372;2024-02-26T10:08:37;11.50;;;8.53;;
6135;SDS011;24008;42.664;23.372;2024-02-26T10:11:04;11.47;;;7.83;;
6135;SDS011;24008;42.664;23.372;2024-02-26T10:13:33;13.00;;;8.13;;
6135;SDS011;24008;42.664;23.372;2024-02-26T10:16:01;13.23;;;8.90;;
6135;SDS011;24008;42.664;23.372;2024-02-26T10:21:15;13.97;;;8.97;;
6135;SDS011;24008;42.664;23.372;2024-02-26T10:23:43;9.70;;;8.30;;
6135;SDS011;24008;42.664;23.372;2024-02-26T10:26:10;14.23;;;8.20;;
6135;SDS011;24008;42.664;23.372;2024-02-26T10:28:38;11.90;;;8.43;;
6135;SDS011;24008;42.664;23.372;2024-02-26T10:31:05;12.20;;;8.50;;
6135;SDS011;24008;42.664;23.372;2024-02-26T10:33:32;11.87;;;8.60;;
6135;SDS011;24008;42.664;23.372;2024-02-26T10:36:00;9.10;;;7.40;;
6135;SDS011;24008;42.664;23.372;2024-02-26T10:38:28;12.50;;;7.97;;
6135;SDS011;24008;42.664;23.372;2024-02-26T10:40:55;11.33;;;7.87;;
6135;SDS011;24008;42.664;23.372;2024-02-26T10:43:22;12.73;;;8.27;;
6135;SDS011;24008;42.664;23.372;2024-02-26T10:45:49;14.63;;;8.30;;
6135;SDS011;24008;42.664;23.372;2024-02-26T10:48:15;11.47;;;7.57;;
6135;SDS011;24008;42.664;23.372;2024-02-26T10:50:43;9.50;;;7.97;;
6135;SDS011;24008;42.664;23.372;2024-02-26T10:53:13;10.90;;;7.90;;
6135;SDS011;24008;42.664;23.372;2024-02-26T10:55:44;12.53;;;8.47;;
6135;SDS011;24008;42.664;23.372;2024-02-26T10:58:15;14.13;;;7.70;;
6135;SDS011;24008;42.664;23.372;2024-02-26T11:00:43;9.30;;;7.33;;
6135;SDS011;24008;42.664;23.372;2024-02-26T11:03:12;11.83;;;8.03;;
6135;SDS011;24008;42.664;23.372;2024-02-26T11:05:42;13.27;;;7.40;;
6135;SDS011;24008;42.664;23.372;2024-02-26T11:08:10;11.27;;;7.87;;
6135;SDS011;24008;42.664;23.372;2024-02-26T11:10:38;11.17;;;7.73;;
6135;SDS011;24008;42.664;23.372;2024-02-26T11:13:08;14.27;;;7.83;;
6135;SDS011;24008;42.664;23.372;2024-02-26T11:15:37;8.83;;;6.97;;
6135;SDS011;24008;42.664;23.372;2024-02-26T11:18:04;11.30;;;7.00;;
6135;SDS011;24008;42.664;23.372;2024-02-26T11:20:34;10.60;;;7.20;;
6135;SDS011;24008;42.664;23.372;2024-02-26T11:23:04;11.67;;;7.87;;
6135;SDS011;24008;42.664;23.372;2024-02-26T11:25:31;9.07;;;7.20;;
6135;SDS011;24008;42.664;23.372;2024-02-26T11:27:58;8.70;;;7.53;;
6135;SDS011;24008;42.664;23.372;2024-02-26T11:30:31;10.03;;;7.13;;
6135;SDS011;24008;42.664;23.372;2024-02-26T11:33:03;10.13;;;8.03;;
6135;SDS011;24008;42.664;23.372;2024-02-26T11:35:33;10.73;;;7.27;;
6135;SDS011;24008;42.664;23.372;2024-02-26T11:38:00;8.90;;;7.00;;
6135;SDS011;24008;42.664;23.372;2024-02-26T11:40:27;8.57;;;7.27;;
6135;SDS011;24008;42.664;23.372;2024-02-26T11:42:54;11.07;;;7.17;;
6135;SDS011;24008;42.664;23.372;2024-02-26T11:48:22;8.33;;;6.87;;
6135;SDS011;24008;42.664;23.372;2024-02-26T11:50:51;9.90;;;7.33;;
6135;SDS011;24008;42.664;23.372;2024-02-26T11:53:25;9.33;;;7.30;;
6135;SDS011;24008;42.664;23.372;2024-02-26T11:58:39;9.20;;;6.73;;
6135;SDS011;24008;42.664;23.372;2024-02-26T12:01:07;9.57;;;6.60;;
6135;SDS011;24008;42.664;23.372;2024-02-26T12:04:13;11.07;;;6.73;;
6135;SDS011;24008;42.664;23.372;2024-02-26T12:06:46;8.13;;;6.73;;
6135;SDS011;24008;42.664;23.372;2024-02-26T12:12:03;8.20;;;6.27;;
6135;SDS011;24008;42.664;23.372;2024-02-26T12:14:32;12.13;;;6.33;;
6135;SDS011;24008;42.664;23.372;2024-02-26T12:17:02;9.87;;;6.60;;
6135;SDS011;24008;42.664;23.372;2024-02-26T12:19:32;9.43;;;6.60;;
6135;SDS011;24008;42.664;23.372;2024-02-26T12:21:59;12.73;;;6.63;;
6135;SDS011;24008;42.664;23.372;2024-02-26T12:24:26;11.10;;;6.70;;
6135;SDS011;24008;42.664;23.372;2024-02-26T12:26:53;11.07;;;6.10;;
6135;SDS011;24008;42.664;23.372;2024-02-26T12:29:20;11.50;;;6.60;;
6135;SDS011;24008;42.664;23.372;2024-02-26T12:31:46;8.43;;;6.07;;
6135;SDS011;24008;42.664;23.372;2024-02-26T12:34:15;9.67;;;6.00;;
6135;SDS011;24008;42.664;23.372;2024-02-26T12:36:42;13.63;;;6.47;;
6135;SDS011;24008;42.664;23.372;2024-02-26T12:39:09;9.20;;;6.20;;
6135;SDS011;24008;42.664;23.372;2024-02-26T12:41:37;8.57;;;5.67;;
6135;SDS011;24008;42.664;23.372;2024-02-26T12:44:04;7.60;;;5.60;;
6135;SDS011;24008;42.664;23.372;2024-02-26T12:46:32;8.20;;;5.70;;
6135;SDS011;24008;42.664;23.372;2024-02-26T12:48:58;7.93;;;5.63;;
6135;SDS011;24008;42.664;23.372;2024-02-26T12:51:27;10.60;;;5.80;;
6135;SDS011;24008;42.664;23.372;2024-02-26T12:53:54;9.07;;;5.73;;
6135;SDS011;24008;42.664;23.372;2024-02-26T12:56:22;7.80;;;5.67;;
6135;SDS011;24008;42.664;23.372;2024-02-26T12:58:49;8.23;;;5.53;;
6135;SDS011;24008;42.664;23.372;2024-02-26T13:01:22;11.53;;;5.50;;
6135;SDS011;24008;42.664;23.372;2024-02-26T13:03:50;10.47;;;5.60;;
6135;SDS011;24008;42.664;23.372;2024-02-26T13:06:18;9.97;;;5.43;;
6135;SDS011;24008;42.664;23.372;2024-02-26T13:08:48;7.93;;;5.77;;
6135;SDS011;24008;42.664;23.372;2024-02-26T13:11:15;7.23;;;5.40;;
6135;SDS011;24008;42.664;23.372;2024-02-26T13:13:42;11.07;;;5.73;;
6135;SDS011;24008;42.664;23.372;2024-02-26T13:16:09;7.93;;;5.87;;
6135;SDS011;24008;42.664;23.372;2024-02-26T13:18:40;8.67;;;5.60;;
6135;SDS011;24008;42.664;23.372;2024-02-26T13:21:08;10.47;;;6.00;;
6135;SDS011;24008;42.664;23.372;2024-02-26T13:23:36;6.70;;;5.33;;
6135;SDS011;24008;42.664;23.372;2024-02-26T13:26:05;9.43;;;5.67;;
6135;SDS011;24008;42.664;23.372;2024-02-26T13:28:31;7.43;;;5.67;;
6135;SDS011;24008;42.664;23.372;2024-02-26T13:30:58;8.07;;;5.43;;
6135;SDS011;24008;42.664;23.372;2024-02-26T13:33:27;10.03;;;5.60;;
6135;SDS011;24008;42.664;23.372;2024-02-26T13:35:55;9.03;;;6.07;;
6135;SDS011;24008;42.664;23.372;2024-02-26T13:38:21;7.67;;;5.60;;
6135;SDS011;24008;42.664;23.372;2024-02-26T13:40:49;8.90;;;5.43;;
6135;SDS011;24008;42.664;23.372;2024-02-26T13:43:17;8.03;;;5.00;;
6135;SDS011;24008;42.664;23.372;2024-02-26T13:45:44;7.60;;;5.47;;
6135;SDS011;24008;42.664;23.372;2024-02-26T13:48:11;7.93;;;6.03;;
6135;SDS011;24008;42.664;23.372;2024-02-26T13:50:39;11.23;;;5.63;;
6135;SDS011;24008;42.664;23.372;2024-02-26T13:53:08;7.50;;;5.10;;
6135;SDS011;24008;42.664;23.372;2024-02-26T13:55:36;6.80;;;5.07;;
6135;SDS011;24008;42.664;23.372;2024-02-26T13:58:02;8.50;;;5.33;;
6135;SDS011;24008;42.664;23.372;2024-02-26T14:00:31;9.03;;;5.50;;
6135;SDS011;24008;42.664;23.372;2024-02-26T14:02:58;7.60;;;5.13;;
6135;SDS011;24008;42.664;23.372;2024-02-26T14:05:25;7.63;;;4.50;;
6135;SDS011;24008;42.664;23.372;2024-02-26T14:07:52;7.63;;;5.07;;
6135;SDS011;24008;42.664;23.372;2024-02-26T14:10:19;9.07;;;5.30;;
6135;SDS011;24008;42.664;23.372;2024-02-26T14:12:46;8.77;;;5.00;;
6135;SDS011;24008;42.664;23.372;2024-02-26T14:15:13;11.43;;;4.77;;
6135;SDS011;24008;42.664;23.372;2024-02-26T14:17:41;6.47;;;4.53;;
6135;SDS011;24008;42.664;23.372;2024-02-26T14:20:09;12.87;;;5.07;;
6135;SDS011;24008;42.664;23.372;2024-02-26T14:22:36;7.00;;;4.90;;
6135;SDS011;24008;42.664;23.372;2024-02-26T14:25:01;10.03;;;5.20;;
6135;SDS011;24008;42.664;23.372;2024-02-26T14:27:28;10.00;;;4.80;;
6135;SDS011;24008;42.664;23.372;2024-02-26T14:29:55;10.40;;;5.40;;
6135;SDS011;24008;42.664;23.372;2024-02-26T14:32:21;11.53;;;5.00;;
6135;SDS011;24008;42.664;23.372;2024-02-26T14:34:49;8.80;;;5.73;;
6135;SDS011;24008;42.664;23.372;2024-02-26T14:37:16;7.37;;;4.60;;
6135;SDS011;24008;42.664;23.372;2024-02-26T14:39:43;8.80;;;4.27;;
6135;SDS011;24008;42.664;23.372;2024-02-26T14:42:10;6.97;;;4.70;;